sensor_id;sensor_type;location;lat;lon;timestamp;P1;durP1;ratioP1;P2;durP2;ratioP2
11185;SDS011;5649;52.422;13.754;2023-03-13T00:00:30;4.63;;;2.50;;
11185;SDS011;5649;52.422;13.754;2023-03-13T00:02:56;4.20;;;2.60;;
11185;SDS011;5649;52.422;13.754;2023-03-13T00:05:22;7.43;;;3.23;;
11185;SDS011;5649;52.422;13.754;2023-03-13T00:07:49;8.77;;;3.40;;
11185;SDS011;5649;52.422;13.754;2023-03-13T00:10:15;6.47;;;2.83;;
11185;SDS011;5649;52.422;13.754;2023-03-13T00:12:41;6.40;;;3.00;;
11185;SDS011;5649;52.422;13.754;2023-03-13T00:15:07;7.80;;;3.87;;
11185;SDS011;5649;52.422;13.754;2023-03-13T00:17:33;7.97;;;3.70;;
11185;SDS011;5649;52.422;13.754;2023-03-13T00:19:59;5.57;;;3.37;;
11185;SDS011;5649;52.422;13.754;2023-03-13T00:22:25;4.67;;;2.53;;
11185;SDS011;5649;52.422;13.754;2023-03-13T00:24:51;9.60;;;3.00;;
11185;SDS011;5649;52.422;13.754;2023-03-13T00:27:17;10.63;;;3.37;;
11185;SDS011;5649;52.422;13.754;2023-03-13T00:29:43;7.70;;;3.40;;
11185;SDS011;5649;52.422;13.754;2023-03-13T00:32:09;6.07;;;2.77;;
11185;SDS011;5649;52.422;13.754;2023-03-13T00:34:35;8.83;;;3.37;;
11185;SDS011;5649;52.422;13.754;2023-03-13T00:37:01;4.90;;;3.00;;
11185;SDS011;5649;52.422;13.754;2023-03-13T00:39:27;4.70;;;2.73;;
11185;SDS011;5649;52.422;13.754;2023-03-13T00:41:53;10.50;;;3.20;;
11185;SDS011;5649;52.422;13.754;2023-03-13T00:44:19;7.13;;;4.00;;
11185;SDS011;5649;52.422;13.754;2023-03-13T00:46:45;5.17;;;2.37;;
11185;SDS011;5649;52.422;13.754;2023-03-13T00:49:12;7.37;;;3.27;;
11185;SDS011;5649;52.422;13.754;2023-03-13T00:51:38;10.67;;;4.53;;
11185;SDS011;5649;52.422;13.754;2023-03-13T00:54:04;10.33;;;4.03;;
11185;SDS011;5649;52.422;13.754;2023-03-13T00:56:30;8.63;;;4.77;;
11185;SDS011;5649;52.422;13.754;2023-03-13T00:58:56;14.03;;;2.90;;
11185;SDS011;5649;52.422;13.754;2023-03-13T01:01:26;13.33;;;3.30;;
11185;SDS011;5649;52.422;13.754;2023-03-13T01:04:03;7.73;;;3.00;;
11185;SDS011;5649;52.422;13.754;2023-03-13T01:06:30;15.03;;;4.03;;
11185;SDS011;5649;52.422;13.754;2023-03-13T01:08:56;5.40;;;3.20;;
11185;SDS011;5649;52.422;13.754;2023-03-13T01:11:26;14.33;;;3.97;;
11185;SDS011;5649;52.422;13.754;2023-03-13T01:13:56;7.50;;;3.30;;
11185;SDS011;5649;52.422;13.754;2023-03-13T01:16:23;12.20;;;3.33;;
11185;SDS011;5649;52.422;13.754;2023-03-13T01:18:50;15.87;;;3.80;;
11185;SDS011;5649;52.422;13.754;2023-03-13T01:21:18;7.53;;;3.83;;
11185;SDS011;5649;52.422;13.754;2023-03-13T01:23:44;7.07;;;2.90;;
11185;SDS011;5649;52.422;13.754;2023-03-13T01:26:11;6.40;;;4.00;;
11185;SDS011;5649;52.422;13.754;2023-03-13T01:28:37;4.70;;;2.80;;
11185;SDS011;5649;52.422;13.754;2023-03-13T01:31:16;7.80;;;3.80;;
11185;SDS011;5649;52.422;13.754;2023-03-13T01:33:43;8.30;;;3.33;;
11185;SDS011;5649;52.422;13.754;2023-03-13T01:36:10;10.63;;;3.67;;
11185;SDS011;5649;52.422;13.754;2023-03-13T01:38:36;13.10;;;3.70;;
11185;SDS011;5649;52.422;13.754;2023-03-13T01:41:02;9.07;;;3.43;;
11185;SDS011;5649;52.422;13.754;2023-03-13T01:43:29;10.43;;;3.63;;
11185;SDS011;5649;52.422;13.754;2023-03-13T01:46:00;8.00;;;3.50;;
11185;SDS011;5649;52.422;13.754;2023-03-13T01:50:59;11.87;;;4.50;;
11185;SDS011;5649;52.422;13.754;2023-03-13T01:53:26;4.20;;;3.13;;
11185;SDS011;5649;52.422;13.754;2023-03-13T01:55:53;9.67;;;4.57;;
11185;SDS011;5649;52.422;13.754;2023-03-13T01:58:20;5.87;;;3.37;;
11185;SDS011;5649;52.422;13.754;2023-03-13T02:00:46;11.63;;;3.90;;
11185;SDS011;5649;52.422;13.754;2023-03-13T02:03:14;14.70;;;3.93;;
11185;SDS011;5649;52.422;13.754;2023-03-13T02:05:41;8.73;;;3.70;;
11185;SDS011;5649;52.422;13.754;2023-03-13T02:08:08;5.93;;;3.33;;
11185;SDS011;5649;52.422;13.754;2023-03-13T02:10:40;5.17;;;3.43;;
11185;SDS011;5649;52.422;13.754;2023-03-13T02:13:08;9.07;;;3.10;;
11185;SDS011;5649;52.422;13.754;2023-03-13T02:15:38;6.23;;;3.47;;
11185;SDS011;5649;52.422;13.754;2023-03-13T02:18:05;8.80;;;3.30;;
11185;SDS011;5649;52.422;13.754;2023-03-13T02:20:31;6.90;;;3.57;;
11185;SDS011;5649;52.422;13.754;2023-03-13T02:25:43;5.97;;;2.70;;
11185;SDS011;5649;52.422;13.754;2023-03-13T02:28:14;8.90;;;3.30;;
11185;SDS011;5649;52.422;13.754;2023-03-13T02:30:42;8.83;;;2.90;;
11185;SDS011;5649;52.422;13.754;2023-03-13T02:33:10;5.47;;;2.90;;
11185;SDS011;5649;52.422;13.754;2023-03-13T02:35:36;4.40;;;2.80;;
11185;SDS011;5649;52.422;13.754;2023-03-13T02:38:03;8.03;;;3.00;;
11185;SDS011;5649;52.422;13.754;2023-03-13T02:40:34;8.97;;;3.30;;
11185;SDS011;5649;52.422;13.754;2023-03-13T02:43:03;10.07;;;2.43;;
11185;SDS011;5649;52.422;13.754;2023-03-13T02:45:29;9.67;;;2.77;;
11185;SDS011;5649;52.422;13.754;2023-03-13T02:47:55;5.50;;;2.50;;
11185;SDS011;5649;52.422;13.754;2023-03-13T02:50:21;16.10;;;3.37;;
11185;SDS011;5649;52.422;13.754;2023-03-13T02:52:50;7.40;;;2.30;;
11185;SDS011;5649;52.422;13.754;2023-03-13T02:55:21;10.43;;;2.90;;
11185;SDS011;5649;52.422;13.754;2023-03-13T02:57:49;9.97;;;2.63;;
11185;SDS011;5649;52.422;13.754;2023-03-13T03:00:15;7.40;;;2.70;;
11185;SDS011;5649;52.422;13.754;2023-03-13T03:02:42;9.60;;;2.60;;
11185;SDS011;5649;52.422;13.754;2023-03-13T03:05:09;5.60;;;2.07;;
11185;SDS011;5649;52.422;13.754;2023-03-13T03:07:35;9.90;;;2.80;;
11185;SDS011;5649;52.422;13.754;2023-03-13T03:10:02;10.53;;;3.00;;
11185;SDS011;5649;52.422;13.754;2023-03-13T03:12:28;5.83;;;2.00;;
11185;SDS011;5649;52.422;13.754;2023-03-13T03:14:54;25.47;;;2.40;;
11185;SDS011;5649;52.422;13.754;2023-03-13T03:17:20;12.40;;;2.50;;
11185;SDS011;5649;52.422;13.754;2023-03-13T03:19:46;6.87;;;2.30;;
11185;SDS011;5649;52.422;13.754;2023-03-13T03:22:12;8.83;;;2.17;;
11185;SDS011;5649;52.422;13.754;2023-03-13T03:24:38;11.37;;;2.47;;
11185;SDS011;5649;52.422;13.754;2023-03-13T03:27:04;3.50;;;2.13;;
11185;SDS011;5649;52.422;13.754;2023-03-13T03:29:30;12.13;;;3.23;;
11185;SDS011;5649;52.422;13.754;2023-03-13T03:31:56;3.53;;;1.60;;
11185;SDS011;5649;52.422;13.754;2023-03-13T03:34:22;8.43;;;1.80;;
11185;SDS011;5649;52.422;13.754;2023-03-13T03:36:48;7.13;;;1.83;;
11185;SDS011;5649;52.422;13.754;2023-03-13T03:39:14;7.27;;;1.93;;
11185;SDS011;5649;52.422;13.754;2023-03-13T03:41:40;4.63;;;2.17;;
11185;SDS011;5649;52.422;13.754;2023-03-13T03:44:06;10.13;;;2.60;;
11185;SDS011;5649;52.422;13.754;2023-03-13T03:46:32;11.00;;;2.80;;
11185;SDS011;5649;52.422;13.754;2023-03-13T03:48:59;16.03;;;2.00;;
11185;SDS011;5649;52.422;13.754;2023-03-13T03:51:25;20.13;;;3.00;;
11185;SDS011;5649;52.422;13.754;2023-03-13T03:53:51;11.00;;;2.57;;
11185;SDS011;5649;52.422;13.754;2023-03-13T03:56:18;13.03;;;3.40;;
11185;SDS011;5649;52.422;13.754;2023-03-13T03:58:44;13.17;;;2.90;;
11185;SDS011;5649;52.422;13.754;2023-03-13T04:01:11;5.73;;;1.83;;
11185;SDS011;5649;52.422;13.754;2023-03-13T04:03:37;9.80;;;3.20;;
11185;SDS011;5649;52.422;13.754;2023-03-13T04:06:03;8.73;;;1.57;;
11185;SDS011;5649;52.422;13.754;2023-03-13T04:08:31;9.40;;;2.10;;
11185;SDS011;5649;52.422;13.754;2023-03-13T04:10:58;11.77;;;2.80;;
11185;SDS011;5649;52.422;13.754;2023-03-13T04:13:25;13.43;;;2.83;;
11185;SDS011;5649;52.422;13.754;2023-03-13T04:15:51;12.60;;;2.10;;
11185;SDS011;5649;52.422;13.754;2023-03-13T04:18:17;17.67;;;2.33;;
11185;SDS011;5649;52.422;13.754;2023-03-13T04:20:43;13.90;;;3.07;;
11185;SDS011;5649;52.422;13.754;2023-03-13T04:23:09;12.70;;;2.13;;
11185;SDS011;5649;52.422;13.754;2023-03-13T04:25:36;13.03;;;2.90;;
11185;SDS011;5649;52.422;13.754;2023-03-13T04:28:02;8.53;;;2.60;;
11185;SDS011;5649;52.422;13.754;2023-03-13T04:30:28;15.00;;;2.23;;
11185;SDS011;5649;52.422;13.754;2023-03-13T04:32:54;7.43;;;2.53;;
11185;SDS011;5649;52.422;13.754;2023-03-13T04:35:20;14.87;;;2.23;;
11185;SDS011;5649;52.422;13.754;2023-03-13T04:37:46;8.30;;;2.63;;
11185;SDS011;5649;52.422;13.754;2023-03-13T04:40:12;13.43;;;2.30;;
11185;SDS011;5649;52.422;13.754;2023-03-13T04:42:39;6.63;;;1.90;;
11185;SDS011;5649;52.422;13.754;2023-03-13T04:45:05;9.20;;;2.10;;
11185;SDS011;5649;52.422;13.754;2023-03-13T04:47:31;11.50;;;3.40;;
11185;SDS011;5649;52.422;13.754;2023-03-13T04:49:57;15.00;;;2.73;;
11185;SDS011;5649;52.422;13.754;2023-03-13T04:52:23;10.00;;;3.23;;
11185;SDS011;5649;52.422;13.754;2023-03-13T04:54:49;6.57;;;1.83;;
11185;SDS011;5649;52.422;13.754;2023-03-13T04:57:15;14.93;;;2.23;;
11185;SDS011;5649;52.422;13.754;2023-03-13T04:59:41;10.07;;;3.50;;
11185;SDS011;5649;52.422;13.754;2023-03-13T05:02:09;6.60;;;2.10;;
11185;SDS011;5649;52.422;13.754;2023-03-13T05:04:36;22.50;;;2.67;;
11185;SDS011;5649;52.422;13.754;2023-03-13T05:07:02;4.93;;;2.47;;
11185;SDS011;5649;52.422;13.754;2023-03-13T05:09:28;15.77;;;2.10;;
11185;SDS011;5649;52.422;13.754;2023-03-13T05:11:54;7.67;;;2.40;;
11185;SDS011;5649;52.422;13.754;2023-03-13T05:14:20;5.13;;;2.37;;
11185;SDS011;5649;52.422;13.754;2023-03-13T05:16:46;5.70;;;2.60;;
11185;SDS011;5649;52.422;13.754;2023-03-13T05:19:12;8.00;;;2.63;;
11185;SDS011;5649;52.422;13.754;2023-03-13T05:21:38;19.57;;;2.10;;
11185;SDS011;5649;52.422;13.754;2023-03-13T05:24:05;7.63;;;2.83;;
11185;SDS011;5649;52.422;13.754;2023-03-13T05:26:31;13.33;;;2.93;;
11185;SDS011;5649;52.422;13.754;2023-03-13T05:28:57;13.87;;;2.80;;
11185;SDS011;5649;52.422;13.754;2023-03-13T05:31:23;12.50;;;2.57;;
11185;SDS011;5649;52.422;13.754;2023-03-13T05:33:49;18.13;;;2.33;;
11185;SDS011;5649;52.422;13.754;2023-03-13T05:36:15;21.30;;;2.83;;
11185;SDS011;5649;52.422;13.754;2023-03-13T05:38:41;14.30;;;2.80;;
11185;SDS011;5649;52.422;13.754;2023-03-13T05:41:07;13.77;;;2.63;;
11185;SDS011;5649;52.422;13.754;2023-03-13T05:43:33;18.83;;;3.03;;
11185;SDS011;5649;52.422;13.754;2023-03-13T05:45:59;8.47;;;2.10;;
11185;SDS011;5649;52.422;13.754;2023-03-13T05:48:25;13.43;;;2.40;;
11185;SDS011;5649;52.422;13.754;2023-03-13T05:50:51;26.43;;;2.57;;
11185;SDS011;5649;52.422;13.754;2023-03-13T05:53:17;16.43;;;2.67;;
11185;SDS011;5649;52.422;13.754;2023-03-13T05:55:43;13.93;;;3.20;;
11185;SDS011;5649;52.422;13.754;2023-03-13T05:58:09;16.10;;;2.50;;
11185;SDS011;5649;52.422;13.754;2023-03-13T06:00:35;18.53;;;3.97;;
11185;SDS011;5649;52.422;13.754;2023-03-13T06:03:01;24.33;;;2.23;;
11185;SDS011;5649;52.422;13.754;2023-03-13T06:05:27;10.00;;;2.87;;
11185;SDS011;5649;52.422;13.754;2023-03-13T06:07:53;26.80;;;3.17;;
11185;SDS011;5649;52.422;13.754;2023-03-13T06:10:19;8.57;;;2.67;;
11185;SDS011;5649;52.422;13.754;2023-03-13T06:12:50;13.77;;;2.07;;
11185;SDS011;5649;52.422;13.754;2023-03-13T06:15:17;16.40;;;2.23;;
11185;SDS011;5649;52.422;13.754;2023-03-13T06:17:43;15.23;;;3.00;;
11185;SDS011;5649;52.422;13.754;2023-03-13T06:20:09;29.73;;;3.37;;
11185;SDS011;5649;52.422;13.754;2023-03-13T06:22:35;18.63;;;2.67;;
11185;SDS011;5649;52.422;13.754;2023-03-13T06:25:01;8.77;;;2.67;;
11185;SDS011;5649;52.422;13.754;2023-03-13T06:27:28;8.73;;;2.33;;
11185;SDS011;5649;52.422;13.754;2023-03-13T06:29:54;24.33;;;3.20;;
11185;SDS011;5649;52.422;13.754;2023-03-13T06:32:20;23.90;;;3.20;;
11185;SDS011;5649;52.422;13.754;2023-03-13T06:34:46;12.13;;;2.73;;
11185;SDS011;5649;52.422;13.754;2023-03-13T06:37:12;5.60;;;1.90;;
11185;SDS011;5649;52.422;13.754;2023-03-13T06:39:38;11.63;;;2.37;;
11185;SDS011;5649;52.422;13.754;2023-03-13T06:42:04;17.20;;;3.00;;
11185;SDS011;5649;52.422;13.754;2023-03-13T06:44:31;13.60;;;3.67;;
11185;SDS011;5649;52.422;13.754;2023-03-13T06:46:57;9.83;;;3.13;;
11185;SDS011;5649;52.422;13.754;2023-03-13T06:49:23;20.73;;;3.10;;
11185;SDS011;5649;52.422;13.754;2023-03-13T06:51:49;16.03;;;2.47;;
11185;SDS011;5649;52.422;13.754;2023-03-13T06:54:15;12.93;;;2.23;;
11185;SDS011;5649;52.422;13.754;2023-03-13T06:56:41;19.37;;;4.23;;
11185;SDS011;5649;52.422;13.754;2023-03-13T06:59:07;10.40;;;2.70;;
11185;SDS011;5649;52.422;13.754;2023-03-13T07:01:33;13.20;;;3.13;;
11185;SDS011;5649;52.422;13.754;2023-03-13T07:03:59;5.23;;;2.03;;
11185;SDS011;5649;52.422;13.754;2023-03-13T07:06:25;19.60;;;2.93;;
11185;SDS011;5649;52.422;13.754;2023-03-13T07:08:51;10.33;;;2.57;;
11185;SDS011;5649;52.422;13.754;2023-03-13T07:11:17;14.43;;;2.00;;
11185;SDS011;5649;52.422;13.754;2023-03-13T07:13:43;7.93;;;3.07;;
11185;SDS011;5649;52.422;13.754;2023-03-13T07:16:10;17.33;;;4.27;;
11185;SDS011;5649;52.422;13.754;2023-03-13T07:18:37;21.17;;;2.67;;
11185;SDS011;5649;52.422;13.754;2023-03-13T07:21:06;13.33;;;2.60;;
11185;SDS011;5649;52.422;13.754;2023-03-13T07:23:33;14.03;;;3.20;;
11185;SDS011;5649;52.422;13.754;2023-03-13T07:26:00;5.80;;;1.77;;
11185;SDS011;5649;52.422;13.754;2023-03-13T07:28:27;4.30;;;2.07;;
11185;SDS011;5649;52.422;13.754;2023-03-13T07:30:54;9.40;;;3.00;;
11185;SDS011;5649;52.422;13.754;2023-03-13T07:33:27;11.77;;;3.50;;
11185;SDS011;5649;52.422;13.754;2023-03-13T07:35:53;10.73;;;2.53;;
11185;SDS011;5649;52.422;13.754;2023-03-13T07:38:19;15.87;;;2.87;;
11185;SDS011;5649;52.422;13.754;2023-03-13T07:40:49;21.47;;;3.03;;
11185;SDS011;5649;52.422;13.754;2023-03-13T07:43:15;16.20;;;3.10;;
11185;SDS011;5649;52.422;13.754;2023-03-13T07:48:17;6.97;;;2.30;;
11185;SDS011;5649;52.422;13.754;2023-03-13T07:50:43;12.00;;;2.17;;
11185;SDS011;5649;52.422;13.754;2023-03-13T07:53:10;16.37;;;2.77;;
11185;SDS011;5649;52.422;13.754;2023-03-13T07:55:36;21.27;;;3.17;;
11185;SDS011;5649;52.422;13.754;2023-03-13T07:58:02;8.70;;;2.37;;
11185;SDS011;5649;52.422;13.754;2023-03-13T08:00:28;10.67;;;2.60;;
11185;SDS011;5649;52.422;13.754;2023-03-13T08:02:54;6.20;;;2.23;;
11185;SDS011;5649;52.422;13.754;2023-03-13T08:05:20;11.60;;;1.97;;
11185;SDS011;5649;52.422;13.754;2023-03-13T08:07:46;12.00;;;3.27;;
11185;SDS011;5649;52.422;13.754;2023-03-13T08:10:12;10.63;;;1.80;;
11185;SDS011;5649;52.422;13.754;2023-03-13T08:12:38;27.80;;;3.07;;
11185;SDS011;5649;52.422;13.754;2023-03-13T08:15:04;20.40;;;1.97;;
11185;SDS011;5649;52.422;13.754;2023-03-13T08:17:31;19.03;;;3.83;;
11185;SDS011;5649;52.422;13.754;2023-03-13T08:19:57;23.80;;;3.40;;
11185;SDS011;5649;52.422;13.754;2023-03-13T08:22:23;8.30;;;1.73;;
11185;SDS011;5649;52.422;13.754;2023-03-13T08:24:49;7.27;;;2.23;;
11185;SDS011;5649;52.422;13.754;2023-03-13T08:27:15;13.47;;;2.47;;
11185;SDS011;5649;52.422;13.754;2023-03-13T08:29:41;15.90;;;2.57;;
11185;SDS011;5649;52.422;13.754;2023-03-13T08:32:07;8.93;;;2.37;;
11185;SDS011;5649;52.422;13.754;2023-03-13T08:34:33;15.03;;;2.40;;
11185;SDS011;5649;52.422;13.754;2023-03-13T08:37:00;8.63;;;2.10;;
11185;SDS011;5649;52.422;13.754;2023-03-13T08:39:26;7.60;;;2.30;;
11185;SDS011;5649;52.422;13.754;2023-03-13T08:41:52;6.40;;;2.40;;
11185;SDS011;5649;52.422;13.754;2023-03-13T08:44:19;7.83;;;2.17;;
11185;SDS011;5649;52.422;13.754;2023-03-13T08:46:45;7.00;;;1.80;;
11185;SDS011;5649;52.422;13.754;2023-03-13T08:49:13;3.20;;;1.93;;
11185;SDS011;5649;52.422;13.754;2023-03-13T08:51:41;24.87;;;3.20;;
11185;SDS011;5649;52.422;13.754;2023-03-13T08:54:08;16.83;;;2.30;;
11185;SDS011;5649;52.422;13.754;2023-03-13T08:56:34;19.47;;;2.87;;
11185;SDS011;5649;52.422;13.754;2023-03-13T08:59:01;17.40;;;2.17;;
11185;SDS011;5649;52.422;13.754;2023-03-13T09:01:28;6.33;;;2.57;;
11185;SDS011;5649;52.422;13.754;2023-03-13T09:03:55;14.00;;;2.10;;
11185;SDS011;5649;52.422;13.754;2023-03-13T09:06:21;6.07;;;1.73;;
11185;SDS011;5649;52.422;13.754;2023-03-13T09:08:47;12.10;;;2.13;;
11185;SDS011;5649;52.422;13.754;2023-03-13T09:11:15;2.80;;;1.87;;
11185;SDS011;5649;52.422;13.754;2023-03-13T09:13:42;2.70;;;1.83;;
11185;SDS011;5649;52.422;13.754;2023-03-13T09:16:10;9.60;;;2.33;;
11185;SDS011;5649;52.422;13.754;2023-03-13T09:18:36;7.87;;;1.80;;
11185;SDS011;5649;52.422;13.754;2023-03-13T09:21:04;7.33;;;1.40;;
11185;SDS011;5649;52.422;13.754;2023-03-13T09:23:30;3.63;;;1.73;;
11185;SDS011;5649;52.422;13.754;2023-03-13T09:25:56;5.30;;;1.60;;
11185;SDS011;5649;52.422;13.754;2023-03-13T09:28:23;7.50;;;0.97;;
11185;SDS011;5649;52.422;13.754;2023-03-13T09:30:49;10.73;;;3.00;;
11185;SDS011;5649;52.422;13.754;2023-03-13T09:33:16;8.63;;;1.40;;
11185;SDS011;5649;52.422;13.754;2023-03-13T09:35:42;4.73;;;1.67;;
11185;SDS011;5649;52.422;13.754;2023-03-13T09:38:11;5.33;;;1.50;;
11185;SDS011;5649;52.422;13.754;2023-03-13T09:40:40;13.20;;;2.00;;
11185;SDS011;5649;52.422;13.754;2023-03-13T09:43:11;7.53;;;2.33;;
11185;SDS011;5649;52.422;13.754;2023-03-13T09:45:44;35.80;;;2.40;;
11185;SDS011;5649;52.422;13.754;2023-03-13T09:50:53;4.07;;;1.60;;
11185;SDS011;5649;52.422;13.754;2023-03-13T09:53:26;4.00;;;1.23;;
11185;SDS011;5649;52.422;13.754;2023-03-13T09:55:55;6.57;;;1.40;;
11185;SDS011;5649;52.422;13.754;2023-03-13T09:58:23;7.77;;;1.97;;
11185;SDS011;5649;52.422;13.754;2023-03-13T10:00:52;3.90;;;1.37;;
11185;SDS011;5649;52.422;13.754;2023-03-13T10:03:20;6.80;;;1.63;;
11185;SDS011;5649;52.422;13.754;2023-03-13T10:05:48;6.10;;;1.40;;
11185;SDS011;5649;52.422;13.754;2023-03-13T10:08:16;6.67;;;1.70;;
11185;SDS011;5649;52.422;13.754;2023-03-13T10:13:22;4.73;;;1.23;;
11185;SDS011;5649;52.422;13.754;2023-03-13T10:18:18;7.90;;;2.00;;
11185;SDS011;5649;52.422;13.754;2023-03-13T10:20:46;5.40;;;1.60;;
11185;SDS011;5649;52.422;13.754;2023-03-13T10:25:48;4.77;;;1.70;;
11185;SDS011;5649;52.422;13.754;2023-03-13T10:28:15;4.80;;;1.10;;
11185;SDS011;5649;52.422;13.754;2023-03-13T10:30:47;3.43;;;1.43;;
11185;SDS011;5649;52.422;13.754;2023-03-13T10:33:20;6.60;;;1.10;;
11185;SDS011;5649;52.422;13.754;2023-03-13T10:35:48;2.83;;;1.23;;
11185;SDS011;5649;52.422;13.754;2023-03-13T10:38:24;3.13;;;1.00;;
11185;SDS011;5649;52.422;13.754;2023-03-13T10:40:56;3.20;;;1.43;;
11185;SDS011;5649;52.422;13.754;2023-03-13T10:43:24;5.73;;;1.77;;
11185;SDS011;5649;52.422;13.754;2023-03-13T10:45:50;10.63;;;1.50;;
11185;SDS011;5649;52.422;13.754;2023-03-13T10:48:20;10.70;;;1.03;;
11185;SDS011;5649;52.422;13.754;2023-03-13T10:50:48;4.67;;;1.70;;
11185;SDS011;5649;52.422;13.754;2023-03-13T10:53:22;4.37;;;1.50;;
11185;SDS011;5649;52.422;13.754;2023-03-13T10:55:49;4.93;;;1.50;;
11185;SDS011;5649;52.422;13.754;2023-03-13T10:58:18;1.90;;;1.20;;
11185;SDS011;5649;52.422;13.754;2023-03-13T11:00:46;1.50;;;1.40;;
11185;SDS011;5649;52.422;13.754;2023-03-13T11:03:16;7.00;;;1.87;;
11185;SDS011;5649;52.422;13.754;2023-03-13T11:05:43;3.67;;;1.33;;
11185;SDS011;5649;52.422;13.754;2023-03-13T11:08:10;2.07;;;1.17;;
11185;SDS011;5649;52.422;13.754;2023-03-13T11:10:37;4.83;;;0.90;;
11185;SDS011;5649;52.422;13.754;2023-03-13T11:13:25;5.10;;;1.40;;
11185;SDS011;5649;52.422;13.754;2023-03-13T11:15:53;3.30;;;1.23;;
11185;SDS011;5649;52.422;13.754;2023-03-13T11:20:55;2.60;;;1.30;;
11185;SDS011;5649;52.422;13.754;2023-03-13T11:38:38;1.87;;;0.90;;
11185;SDS011;5649;52.422;13.754;2023-03-13T11:53:46;1.67;;;1.27;;
11185;SDS011;5649;52.422;13.754;2023-03-13T11:58:57;4.07;;;2.10;;
11185;SDS011;5649;52.422;13.754;2023-03-13T12:01:27;3.10;;;1.93;;
11185;SDS011;5649;52.422;13.754;2023-03-13T12:06:33;5.03;;;1.63;;
11185;SDS011;5649;52.422;13.754;2023-03-13T12:09:09;7.27;;;1.20;;
11185;SDS011;5649;52.422;13.754;2023-03-13T12:11:42;2.63;;;1.23;;
11185;SDS011;5649;52.422;13.754;2023-03-13T12:14:24;4.90;;;1.67;;
11185;SDS011;5649;52.422;13.754;2023-03-13T12:16:52;6.73;;;2.80;;
11185;SDS011;5649;52.422;13.754;2023-03-13T12:19:31;0.80;;;0.80;;
11185;SDS011;5649;52.422;13.754;2023-03-13T12:22:01;2.30;;;0.87;;
11185;SDS011;5649;52.422;13.754;2023-03-13T12:24:38;1.70;;;0.97;;
11185;SDS011;5649;52.422;13.754;2023-03-13T12:32:18;0.77;;;0.77;;
11185;SDS011;5649;52.422;13.754;2023-03-13T12:34:51;0.90;;;0.90;;
11185;SDS011;5649;52.422;13.754;2023-03-13T12:40:15;0.97;;;0.83;;
11185;SDS011;5649;52.422;13.754;2023-03-13T12:42:50;0.70;;;0.70;;
11185;SDS011;5649;52.422;13.754;2023-03-13T12:45:19;1.37;;;0.70;;
11185;SDS011;5649;52.422;13.754;2023-03-13T12:55:36;0.80;;;0.80;;
11185;SDS011;5649;52.422;13.754;2023-03-13T13:00:46;5.50;;;0.70;;
11185;SDS011;5649;52.422;13.754;2023-03-13T13:05:56;1.80;;;0.90;;
11185;SDS011;5649;52.422;13.754;2023-03-13T13:08:23;0.70;;;0.70;;
11185;SDS011;5649;52.422;13.754;2023-03-13T13:10:49;1.00;;;0.63;;
11185;SDS011;5649;52.422;13.754;2023-03-13T13:13:17;1.10;;;0.87;;
11185;SDS011;5649;52.422;13.754;2023-03-13T13:15:47;1.73;;;0.90;;
11185;SDS011;5649;52.422;13.754;2023-03-13T13:18:24;1.20;;;0.70;;
11185;SDS011;5649;52.422;13.754;2023-03-13T13:28:42;20.87;;;0.80;;
11185;SDS011;5649;52.422;13.754;2023-03-13T13:33:53;1.47;;;1.13;;
11185;SDS011;5649;52.422;13.754;2023-03-13T13:38:45;2.23;;;1.10;;
11185;SDS011;5649;52.422;13.754;2023-03-13T13:43:39;17.67;;;1.13;;
11185;SDS011;5649;52.422;13.754;2023-03-13T13:49:07;1.47;;;1.07;;
11185;SDS011;5649;52.422;13.754;2023-03-13T13:51:33;1.47;;;1.07;;
11185;SDS011;5649;52.422;13.754;2023-03-13T13:54:15;0.73;;;0.70;;
11185;SDS011;5649;52.422;13.754;2023-03-13T13:56:59;0.90;;;0.90;;
11185;SDS011;5649;52.422;13.754;2023-03-13T13:59:42;0.87;;;0.80;;
11185;SDS011;5649;52.422;13.754;2023-03-13T14:04:39;1.40;;;0.83;;
11185;SDS011;5649;52.422;13.754;2023-03-13T14:07:05;0.70;;;0.70;;
11185;SDS011;5649;52.422;13.754;2023-03-13T14:09:57;0.83;;;0.83;;
11185;SDS011;5649;52.422;13.754;2023-03-13T14:12:37;4.77;;;0.90;;
11185;SDS011;5649;52.422;13.754;2023-03-13T14:17:39;2.10;;;1.07;;
11185;SDS011;5649;52.422;13.754;2023-03-13T14:20:15;0.90;;;0.90;;
11185;SDS011;5649;52.422;13.754;2023-03-13T14:22:45;1.00;;;0.97;;
11185;SDS011;5649;52.422;13.754;2023-03-13T14:25:11;10.10;;;1.10;;
11185;SDS011;5649;52.422;13.754;2023-03-13T14:27:44;3.87;;;0.87;;
11185;SDS011;5649;52.422;13.754;2023-03-13T14:30:10;4.00;;;1.13;;
11185;SDS011;5649;52.422;13.754;2023-03-13T14:32:37;1.63;;;0.90;;
11185;SDS011;5649;52.422;13.754;2023-03-13T14:35:03;2.77;;;0.93;;
11185;SDS011;5649;52.422;13.754;2023-03-13T14:37:43;1.27;;;1.00;;
11185;SDS011;5649;52.422;13.754;2023-03-13T14:40:20;1.80;;;1.00;;
11185;SDS011;5649;52.422;13.754;2023-03-13T14:42:50;5.20;;;1.57;;
11185;SDS011;5649;52.422;13.754;2023-03-13T14:47:49;4.50;;;0.87;;
11185;SDS011;5649;52.422;13.754;2023-03-13T14:50:15;2.30;;;0.97;;
11185;SDS011;5649;52.422;13.754;2023-03-13T14:52:44;15.83;;;1.00;;
11185;SDS011;5649;52.422;13.754;2023-03-13T14:57:59;0.67;;;0.67;;
11185;SDS011;5649;52.422;13.754;2023-03-13T15:00:33;3.00;;;1.10;;
11185;SDS011;5649;52.422;13.754;2023-03-13T15:06:05;1.57;;;1.00;;
11185;SDS011;5649;52.422;13.754;2023-03-13T15:08:31;1.03;;;0.93;;
11185;SDS011;5649;52.422;13.754;2023-03-13T15:10:58;0.87;;;0.87;;
11185;SDS011;5649;52.422;13.754;2023-03-13T15:15:51;2.20;;;0.93;;
11185;SDS011;5649;52.422;13.754;2023-03-13T15:18:18;1.73;;;0.80;;
11185;SDS011;5649;52.422;13.754;2023-03-13T15:20:52;1.27;;;0.83;;
11185;SDS011;5649;52.422;13.754;2023-03-13T15:23:19;2.37;;;1.30;;
11185;SDS011;5649;52.422;13.754;2023-03-13T15:25:45;1.43;;;0.93;;
11185;SDS011;5649;52.422;13.754;2023-03-13T15:28:21;11.97;;;1.03;;
11185;SDS011;5649;52.422;13.754;2023-03-13T15:30:49;0.90;;;0.73;;
11185;SDS011;5649;52.422;13.754;2023-03-13T15:33:16;2.10;;;1.03;;
11185;SDS011;5649;52.422;13.754;2023-03-13T15:35:43;3.60;;;0.70;;
11185;SDS011;5649;52.422;13.754;2023-03-13T15:38:11;1.23;;;0.70;;
11185;SDS011;5649;52.422;13.754;2023-03-13T15:40:37;1.73;;;0.90;;
11185;SDS011;5649;52.422;13.754;2023-03-13T15:43:03;1.57;;;0.70;;
11185;SDS011;5649;52.422;13.754;2023-03-13T15:45:29;2.03;;;1.00;;
11185;SDS011;5649;52.422;13.754;2023-03-13T15:47:56;6.13;;;0.80;;
11185;SDS011;5649;52.422;13.754;2023-03-13T15:50:22;1.43;;;0.77;;
11185;SDS011;5649;52.422;13.754;2023-03-13T15:52:53;5.40;;;0.90;;
11185;SDS011;5649;52.422;13.754;2023-03-13T15:55:19;1.63;;;1.20;;
11185;SDS011;5649;52.422;13.754;2023-03-13T15:57:48;17.80;;;1.17;;
11185;SDS011;5649;52.422;13.754;2023-03-13T16:00:15;1.20;;;1.10;;
11185;SDS011;5649;52.422;13.754;2023-03-13T16:02:43;0.70;;;0.70;;
11185;SDS011;5649;52.422;13.754;2023-03-13T16:05:09;0.80;;;0.80;;
11185;SDS011;5649;52.422;13.754;2023-03-13T16:07:35;1.20;;;0.87;;
11185;SDS011;5649;52.422;13.754;2023-03-13T16:10:02;1.43;;;0.90;;
11185;SDS011;5649;52.422;13.754;2023-03-13T16:12:28;1.00;;;1.00;;
11185;SDS011;5649;52.422;13.754;2023-03-13T16:14:54;0.90;;;0.90;;
11185;SDS011;5649;52.422;13.754;2023-03-13T16:17:20;2.43;;;0.83;;
11185;SDS011;5649;52.422;13.754;2023-03-13T16:19:46;12.40;;;0.63;;
11185;SDS011;5649;52.422;13.754;2023-03-13T16:22:13;3.47;;;1.30;;
11185;SDS011;5649;52.422;13.754;2023-03-13T16:24:39;2.13;;;0.90;;
11185;SDS011;5649;52.422;13.754;2023-03-13T16:27:10;1.27;;;0.80;;
11185;SDS011;5649;52.422;13.754;2023-03-13T16:29:36;1.13;;;1.13;;
11185;SDS011;5649;52.422;13.754;2023-03-13T16:32:02;2.10;;;0.80;;
11185;SDS011;5649;52.422;13.754;2023-03-13T16:34:28;2.10;;;1.07;;